地図

経路データ

SID SEASON NUMBER BASIN SUBBASIN NAME ISO_TIME NATURE LAT LON WMO_WIND WMO_PRES WMO_AGENCY TRACK_TYPE DIST2LAND LANDFALL IFLAG USA_AGENCY USA_ATCF_ID USA_LAT USA_LON USA_RECORD USA_STATUS USA_WIND USA_PRES USA_SSHS USA_R34_NE USA_R34_SE USA_R34_SW USA_R34_NW USA_R50_NE USA_R50_SE USA_R50_SW USA_R50_NW USA_R64_NE USA_R64_SE USA_R64_SW USA_R64_NW USA_POCI USA_ROCI USA_RMW USA_EYE TOKYO_LAT TOKYO_LON TOKYO_GRADE TOKYO_WIND TOKYO_PRES TOKYO_R50_DIR TOKYO_R50_LONG TOKYO_R50_SHORT TOKYO_R30_DIR TOKYO_R30_LONG TOKYO_R30_SHORT TOKYO_LAND CMA_LAT CMA_LON CMA_CAT CMA_WIND CMA_PRES HKO_LAT HKO_LON HKO_CAT HKO_WIND HKO_PRES NEWDELHI_LAT NEWDELHI_LON NEWDELHI_GRADE NEWDELHI_WIND NEWDELHI_PRES NEWDELHI_CI NEWDELHI_DP NEWDELHI_POCI REUNION_LAT REUNION_LON REUNION_TYPE REUNION_WIND REUNION_PRES REUNION_TNUM REUNION_CI REUNION_RMW REUNION_R34_NE REUNION_R34_SE REUNION_R34_SW REUNION_R34_NW REUNION_R50_NE REUNION_R50_SE REUNION_R50_SW REUNION_R50_NW REUNION_R64_NE REUNION_R64_SE REUNION_R64_SW REUNION_R64_NW BOM_LAT BOM_LON BOM_TYPE BOM_WIND BOM_PRES BOM_TNUM BOM_CI BOM_RMW BOM_R34_NE BOM_R34_SE BOM_R34_SW BOM_R34_NW BOM_R50_NE BOM_R50_SE BOM_R50_SW BOM_R50_NW BOM_R64_NE BOM_R64_SE BOM_R64_SW BOM_R64_NW BOM_ROCI BOM_POCI BOM_EYE BOM_POS_METHOD BOM_PRES_METHOD NADI_LAT NADI_LON NADI_CAT NADI_WIND NADI_PRES WELLINGTON_LAT WELLINGTON_LON WELLINGTON_WIND WELLINGTON_PRES DS824_LAT DS824_LON DS824_STAGE DS824_WIND DS824_PRES TD9636_LAT TD9636_LON TD9636_STAGE TD9636_WIND TD9636_PRES TD9635_LAT TD9635_LON TD9635_WIND TD9635_PRES TD9635_ROCI NEUMANN_LAT NEUMANN_LON NEUMANN_CLASS NEUMANN_WIND NEUMANN_PRES MLC_LAT MLC_LON MLC_CLASS MLC_WIND MLC_PRES USA_GUST BOM_GUST BOM_GUST_PER REUNION_GUST REUNION_GUST_PER USA_SEAHGT USA_SEARAD_NE USA_SEARAD_SE USA_SEARAD_SW USA_SEARAD_NW STORM_SPEED STORM_DIR
1903252N21288 1903 42 NA NA NOT_NAMED 1903-09-09 06:00:00 TS 21.4000 -72.4000 50 hurdat_atl main 66 39 O_____________ hurdat_atl AL031903 21.4000 -72.4000 TS 50 0 11 292
1903252N21288 1903 42 NA NA NOT_NAMED 1903-09-09 09:00:00 TS 21.6005 -72.9421 main 45 44 P_____________ AL031903 21.6005 -72.9421 TS 50 0 10 293
1903252N21288 1903 42 NA NA NOT_NAMED 1903-09-09 12:00:00 TS 21.8000 -73.4000 50 hurdat_atl main 70 70 O_____________ hurdat_atl AL031903 21.8000 -73.4000 TS 50 0 8 299
1903252N21288 1903 42 NA NA NOT_NAMED 1903-09-09 15:00:00 TS 21.9997 -73.7227 main 100 100 P_____________ AL031903 21.9997 -73.7227 TS 50 0 7 306
1903252N21288 1903 42 NA NA NOT_NAMED 1903-09-09 18:00:00 TS 22.2000 -74.0000 50 hurdat_atl main 126 126 O_____________ hurdat_atl AL031903 22.2000 -74.0000 TS 50 0 7 304
1903252N21288 1903 42 NA NA NOT_NAMED 1903-09-09 21:00:00 TS 22.3850 -74.3501 main 162 162 P_____________ AL031903 22.3850 -74.3501 TS 52 0 8 302
1903252N21288 1903 42 NA NA NOT_NAMED 1903-09-10 00:00:00 TS 22.6000 -74.7000 55 hurdat_atl main 196 196 O_____________ hurdat_atl AL031903 22.6000 -74.7000 TS 55 0 8 310
1903252N21288 1903 42 NA NA NOT_NAMED 1903-09-10 03:00:00 TS 22.8849 -75.0001 main 221 221 P_____________ AL031903 22.8849 -75.0001 TS 57 0 8 317
1903252N21288 1903 42 NA NA NOT_NAMED 1903-09-10 06:00:00 TS 23.2000 -75.3000 60 hurdat_atl main 242 238 O_____________ hurdat_atl AL031903 23.2000 -75.3000 TS 60 0 9 316
1903252N21288 1903 42 NA NA NOT_NAMED 1903-09-10 09:00:00 TS 23.4925 -75.6427 main 240 189 P_____________ AL031903 23.4925 -75.6427 TS 62 0 9 313
1903252N21288 1903 42 NA NA NOT_NAMED 1903-09-10 12:00:00 TS 23.8000 -76.0000 65 hurdat_atl main 189 148 O_____________ hurdat_atl AL031903 23.8000 -76.0000 HU 65 1 9 316
1903252N21288 1903 42 NA NA NOT_NAMED 1903-09-10 15:00:00 TS 24.1499 -76.3426 main 148 101 P_____________ AL031903 24.1499 -76.3426 HU 67 1 10 318
1903252N21288 1903 42 NA NA NOT_NAMED 1903-09-10 18:00:00 TS 24.5000 -76.7000 70 hurdat_atl main 101 69 O_____________ hurdat_atl AL031903 24.5000 -76.7000 HU 70 1 10 314
1903252N21288 1903 42 NA NA NOT_NAMED 1903-09-10 21:00:00 TS 24.8225 -77.1000 main 69 46 P_____________ AL031903 24.8225 -77.1000 HU 72 1 9 310
1903252N21288 1903 42 NA NA NOT_NAMED 1903-09-11 00:00:00 TS 25.1000 -77.5000 75 hurdat_atl main 46 30 O_____________ hurdat_atl AL031903 25.1000 -77.5000 HU 75 1 9 306
1903252N21288 1903 42 NA NA NOT_NAMED 1903-09-11 03:00:00 TS 25.3299 -77.8577 main 24 24 P_____________ AL031903 25.3299 -77.8577 HU 75 1 7 302
1903252N21288 1903 42 NA NA NOT_NAMED 1903-09-11 06:00:00 TS 25.5000 -78.2000 75 hurdat_atl main 45 45 O_____________ hurdat_atl AL031903 25.5000 -78.2000 HU 75 1 7 294
1903252N21288 1903 42 NA NA NOT_NAMED 1903-09-11 09:00:00 TS 25.6149 -78.5502 main 75 75 P_____________ AL031903 25.6149 -78.5502 HU 75 1 7 288
1903252N21288 1903 42 NA NA NOT_NAMED 1903-09-11 12:00:00 TS 25.7000 -78.9000 75 hurdat_atl main 104 90 O_____________ hurdat_atl AL031903 25.7000 -78.9000 HU 75 1 7 286
1903252N21288 1903 42 NA NA NOT_NAMED 1903-09-11 15:00:00 TS 25.7967 -79.2583 main 80 49 P_____________ AL031903 25.7967 -79.2583 HU 75 1 7 288
1903252N21288 1903 42 NA NA NOT_NAMED 1903-09-11 18:00:00 TS 25.9000 -79.6000 75 976 hurdat_atl main 49 29 O_____________ hurdat_atl AL031903 25.9000 -79.6000 HU 75 976 1 5 289
1903252N21288 1903 42 NA NA NOT_NAMED 1903-09-11 21:00:00 TS 25.9758 -79.8331 main 29 0 P_____________ AL031903 25.9758 -79.8331 HU 75 976 1 6 294
1903252N21288 1903 42 NA NA NOT_NAMED 1903-09-11 23:00:00 TS 26.1000 -80.1000 75 976 hurdat_atl main 0 0 O_____________ hurdat_atl AL031903 26.1000 -80.1000 L HU 75 976 1 10 298
1903252N21288 1903 42 NA NA NOT_NAMED 1903-09-12 00:00:00 TS 26.2000 -80.3000 70 hurdat_atl main 0 0 I_____________ hurdat_atl AL031903 26.2000 -80.3000 HU 70 976 1 11 300
1903252N21288 1903 42 NA NA NOT_NAMED 1903-09-12 03:00:00 TS 26.4572 -80.7909 main 0 0 P_____________ AL031903 26.4572 -80.7909 HU 65 979 1 9 302
1903252N21288 1903 42 NA NA NOT_NAMED 1903-09-12 06:00:00 TS 26.7000 -81.2000 60 hurdat_atl main 0 0 I_____________ hurdat_atl AL031903 26.7000 -81.2000 TS 60 982 0 10 305
1903252N21288 1903 42 NA NA NOT_NAMED 1903-09-12 09:00:00 TS 27.0074 -81.6574 main 0 0 P_____________ AL031903 27.0074 -81.6574 TS 57 985 0 10 307
1903252N21288 1903 42 NA NA NOT_NAMED 1903-09-12 12:00:00 TS 27.3000 -82.1000 55 988 hurdat_atl main 0 0 O_____________ hurdat_atl AL031903 27.3000 -82.1000 TS 55 988 0 9 304
1903252N21288 1903 42 NA NA NOT_NAMED 1903-09-12 15:00:00 TS 27.5149 -82.5153 main 0 0 P_____________ AL031903 27.5149 -82.5153 TS 52 0 8 299
1903252N21288 1903 42 NA GM NOT_NAMED 1903-09-12 18:00:00 TS 27.7000 -82.9000 50 hurdat_atl main 14 14 O_____________ hurdat_atl AL031903 27.7000 -82.9000 TS 50 0 8 300
1903252N21288 1903 42 NA GM NOT_NAMED 1903-09-12 21:00:00 TS 27.8999 -83.2651 main 39 39 P_____________ AL031903 27.8999 -83.2651 TS 55 0 7 303
1903252N21288 1903 42 NA GM NOT_NAMED 1903-09-13 00:00:00 TS 28.1000 -83.6000 60 hurdat_atl main 72 72 O_____________ hurdat_atl AL031903 28.1000 -83.6000 TS 60 0 7 305
1903252N21288 1903 42 NA GM NOT_NAMED 1903-09-13 03:00:00 TS 28.2999 -83.9076 main 107 107 P_____________ AL031903 28.2999 -83.9076 TS 65 1 7 307
1903252N21288 1903 42 NA GM NOT_NAMED 1903-09-13 06:00:00 TS 28.5000 -84.2000 70 hurdat_atl main 132 118 O_____________ hurdat_atl AL031903 28.5000 -84.2000 HU 70 1 7 306
1903252N21288 1903 42 NA GM NOT_NAMED 1903-09-13 09:00:00 TS 28.6850 -84.5077 main 118 89 P_____________ AL031903 28.6850 -84.5077 HU 75 1 7 307
1903252N21288 1903 42 NA GM NOT_NAMED 1903-09-13 12:00:00 TS 28.9000 -84.8000 80 hurdat_atl main 89 55 O_____________ hurdat_atl AL031903 28.9000 -84.8000 HU 80 1 7 315
1903252N21288 1903 42 NA GM NOT_NAMED 1903-09-13 15:00:00 TS 29.1755 -85.0689 main 55 22 P_____________ AL031903 29.1755 -85.0689 HU 80 1 7 324
1903252N21288 1903 42 NA GM NOT_NAMED 1903-09-13 18:00:00 TS 29.5000 -85.3000 80 hurdat_atl main 22 0 O_____________ hurdat_atl AL031903 29.5000 -85.3000 HU 80 1 7 332
1903252N21288 1903 42 NA GM NOT_NAMED 1903-09-13 21:00:00 TS 29.7989 -85.4572 main 9 0 P_____________ AL031903 29.7989 -85.4572 HU 80 1 8 337
1903252N21288 1903 42 NA GM NOT_NAMED 1903-09-13 23:00:00 TS 30.1000 -85.6000 80 hurdat_atl main 0 0 O_____________ hurdat_atl AL031903 30.1000 -85.6000 L HU 80 1 11 337
1903252N21288 1903 42 NA GM NOT_NAMED 1903-09-14 00:00:00 TS 30.3000 -85.7000 80 hurdat_atl main 0 0 O_____________ hurdat_atl AL031903 30.3000 -85.7000 HU 80 1 10 340
1903252N21288 1903 42 NA NA NOT_NAMED 1903-09-14 03:00:00 TS 30.7234 -85.8604 main 0 0 P_____________ AL031903 30.7234 -85.8604 HU 70 1 7 346
1903252N21288 1903 42 NA NA NOT_NAMED 1903-09-14 06:00:00 TS 31.0000 -85.9000 60 hurdat_atl main 0 0 O_____________ hurdat_atl AL031903 31.0000 -85.9000 TS 60 0 6 352
1903252N21288 1903 42 NA NA NOT_NAMED 1903-09-14 09:00:00 TS 31.3225 -85.9650 main 0 0 P_____________ AL031903 31.3225 -85.9650 TS 52 0 6 352
1903252N21288 1903 42 NA NA NOT_NAMED 1903-09-14 12:00:00 TS 31.6000 -86.0000 45 hurdat_atl main 0 0 O_____________ hurdat_atl AL031903 31.6000 -86.0000 TS 45 0 5 355
1903252N21288 1903 42 NA NA NOT_NAMED 1903-09-14 15:00:00 TS 31.8150 -86.0150 main 0 0 P_____________ AL031903 31.8150 -86.0150 TS 40 0 4 0
1903252N21288 1903 42 NA NA NOT_NAMED 1903-09-14 18:00:00 TS 32.0000 -86.0000 35 hurdat_atl main 0 0 O_____________ hurdat_atl AL031903 32.0000 -86.0000 TS 35 0 4 4
1903252N21288 1903 42 NA NA NOT_NAMED 1903-09-14 21:00:00 TS 32.2075 -85.9725 main 0 0 P_____________ AL031903 32.2075 -85.9725 TS 35 0 4 12
1903252N21288 1903 42 NA NA NOT_NAMED 1903-09-15 00:00:00 TS 32.4000 -85.9000 35 hurdat_atl main 0 0 O_____________ hurdat_atl AL031903 32.4000 -85.9000 TS 35 0 4 27
1903252N21288 1903 42 NA NA NOT_NAMED 1903-09-15 03:00:00 TS 32.5575 -85.7650 main 0 0 P_____________ AL031903 32.5575 -85.7650 TS 35 0 4 40
1903252N21288 1903 42 NA NA NOT_NAMED 1903-09-15 06:00:00 TS 32.7000 -85.6000 35 hurdat_atl main 0 0 O_____________ hurdat_atl AL031903 32.7000 -85.6000 TS 35 0 4 42
1903252N21288 1903 42 NA NA NOT_NAMED 1903-09-15 09:00:00 TS 32.8500 -85.4574 main 0 0 P_____________ AL031903 32.8500 -85.4574 TS 35 0 4 40
1903252N21288 1903 42 NA NA NOT_NAMED 1903-09-15 12:00:00 TS 33.0000 -85.3000 35 hurdat_atl main 0 0 O_____________ hurdat_atl AL031903 33.0000 -85.3000 TS 35 0 4 43
1903252N21288 1903 42 NA NA NOT_NAMED 1903-09-15 15:00:00 TS 33.1499 -85.1224 main 0 0 P_____________ AL031903 33.1499 -85.1224 TS 35 0 4 48
1903252N21288 1903 42 NA NA NOT_NAMED 1903-09-15 18:00:00 TS 33.3000 -84.9000 35 hurdat_atl main 0 0 O_____________ hurdat_atl AL031903 33.3000 -84.9000 TS 35 0 5 54
1903252N21288 1903 42 NA NA NOT_NAMED 1903-09-15 21:00:00 TS 33.4575 -84.6151 main 0 0 P_____________ AL031903 33.4575 -84.6151 TS 32 -1 6 59
1903252N21288 1903 42 NA NA NOT_NAMED 1903-09-16 00:00:00 TS 33.6000 -84.3000 30 hurdat_atl main 0 0 O_____________ hurdat_atl AL031903 33.6000 -84.3000 TD 30 -1 6 64
1903252N21288 1903 42 NA NA NOT_NAMED 1903-09-16 03:00:00 TS 33.7074 -84.0073 main 0 0 P_____________ AL031903 33.7074 -84.0073 TD 30 -1 5 68
1903252N21288 1903 42 NA NA NOT_NAMED 1903-09-16 06:00:00 TS 33.8000 -83.7000 30 hurdat_atl main 0 0 O_____________ hurdat_atl AL031903 33.8000 -83.7000 TD 30 -1 6 68
1903252N21288 1903 42 NA NA NOT_NAMED 1903-09-16 09:00:00 TS 33.9225 -83.3577 main 0 0 P_____________ AL031903 33.9225 -83.3577 TD 30 -1 6 71
1903252N21288 1903 42 NA NA NOT_NAMED 1903-09-16 12:00:00 TS 34.0000 -83.0000 30 hurdat_atl main 0 0 O_____________ hurdat_atl AL031903 34.0000 -83.0000 TD 30 -1 6 84
1903252N21288 1903 42 NA NA NOT_NAMED 1903-09-16 15:00:00 TS 33.9802 -82.6472 main 0 0 P_____________ AL031903 33.9802 -82.6472 TD 30 -1 6 100
1903252N21288 1903 42 NA NA NOT_NAMED 1903-09-16 18:00:00 TS 33.9000 -82.3000 30 hurdat_atl main 0 O_____________ hurdat_atl AL031903 33.9000 -82.3000 TD 30 -1 6 106

IBTrACS Databaseについて

本データベースは、米国NOAAが公開する1842年以降の世界の熱帯低気圧のベストトラックデータアーカイブInternational Best Track Archive for Climate Stewardship (IBTrACS)を、ウェブで閲覧しやすい形式に変換したものです。

最終更新日:2021-10-21